sensor_id;sensor_type;location;lat;lon;timestamp;pressure;altitude;pressure_sealevel;temperature;humidity
63399;BME280;49533;-34.520;150.798;2022-08-03T00:02:11;100306.63;;;12.70;54.74
63399;BME280;49533;-34.520;150.798;2022-08-03T00:04:37;100299.28;;;12.71;55.36
63399;BME280;49533;-34.520;150.798;2022-08-03T00:07:04;100299.28;;;12.71;55.73
63399;BME280;49533;-34.520;150.798;2022-08-03T00:09:32;100298.59;;;12.74;56.04
63399;BME280;49533;-34.520;150.798;2022-08-03T00:11:59;100291.69;;;12.76;55.97
63399;BME280;49533;-34.520;150.798;2022-08-03T00:14:26;100276.63;;;12.79;56.20
63399;BME280;49533;-34.520;150.798;2022-08-03T00:16:53;100268.91;;;12.81;55.74
63399;BME280;49533;-34.520;150.798;2022-08-03T00:19:20;100275.47;;;12.80;56.26
63399;BME280;49533;-34.520;150.798;2022-08-03T00:21:47;100265.84;;;12.82;56.00
63399;BME280;49533;-34.520;150.798;2022-08-03T00:24:14;100265.53;;;12.84;55.80
63399;BME280;49533;-34.520;150.798;2022-08-03T00:26:41;100258.47;;;12.83;56.35
63399;BME280;49533;-34.520;150.798;2022-08-03T00:29:08;100278.19;;;12.89;56.49
63399;BME280;49533;-34.520;150.798;2022-08-03T00:31:35;100258.75;;;12.90;56.75
63399;BME280;49533;-34.520;150.798;2022-08-03T00:34:02;100266.25;;;12.93;56.80
63399;BME280;49533;-34.520;150.798;2022-08-03T00:36:29;100260.97;;;12.97;56.64
63399;BME280;49533;-34.520;150.798;2022-08-03T00:38:56;100269.28;;;13.00;56.99
63399;BME280;49533;-34.520;150.798;2022-08-03T00:41:23;100261.56;;;13.02;57.29
63399;BME280;49533;-34.520;150.798;2022-08-03T00:43:50;100259.31;;;13.04;57.37
63399;BME280;49533;-34.520;150.798;2022-08-03T00:46:17;100268.63;;;13.03;57.37
63399;BME280;49533;-34.520;150.798;2022-08-03T00:48:48;100261.56;;;13.02;57.26
63399;BME280;49533;-34.520;150.798;2022-08-03T00:51:16;100252.72;;;13.05;57.12
63399;BME280;49533;-34.520;150.798;2022-08-03T00:53:44;100243.44;;;13.07;56.76
63399;BME280;49533;-34.520;150.798;2022-08-03T00:56:17;100241.97;;;13.09;57.31
63399;BME280;49533;-34.520;150.798;2022-08-03T00:58:45;100238.44;;;13.09;56.84
63399;BME280;49533;-34.520;150.798;2022-08-03T01:01:13;100234.25;;;13.11;57.19
63399;BME280;49533;-34.520;150.798;2022-08-03T01:03:40;100215.28;;;13.15;56.63
63399;BME280;49533;-34.520;150.798;2022-08-03T01:06:17;100224.41;;;13.19;56.72
63399;BME280;49533;-34.520;150.798;2022-08-03T01:11:33;100208.59;;;13.33;56.88
63399;BME280;49533;-34.520;150.798;2022-08-03T01:17:20;100209.94;;;13.48;56.71
63399;BME280;49533;-34.520;150.798;2022-08-03T01:20:07;100197.34;;;13.56;56.71
63399;BME280;49533;-34.520;150.798;2022-08-03T01:25:33;100181.03;;;13.68;56.94
63399;BME280;49533;-34.520;150.798;2022-08-03T01:30:54;100166.94;;;13.78;57.22
63399;BME280;49533;-34.520;150.798;2022-08-03T01:33:27;100174.56;;;13.85;57.17
63399;BME280;49533;-34.520;150.798;2022-08-03T01:36:01;100153.97;;;13.87;56.98
63399;BME280;49533;-34.520;150.798;2022-08-03T01:38:33;100160.84;;;13.94;57.24
63399;BME280;49533;-34.520;150.798;2022-08-03T01:41:16;100145.03;;;13.99;57.26
63399;BME280;49533;-34.520;150.798;2022-08-03T01:43:45;100142.88;;;14.05;57.16
63399;BME280;49533;-34.520;150.798;2022-08-03T01:46:16;100133.88;;;14.04;57.77
63399;BME280;49533;-34.520;150.798;2022-08-03T01:48:47;100139.22;;;14.13;57.54
63399;BME280;49533;-34.520;150.798;2022-08-03T01:51:17;100139.00;;;14.18;57.02
63399;BME280;49533;-34.520;150.798;2022-08-03T01:53:47;100130.13;;;14.21;57.65
63399;BME280;49533;-34.520;150.798;2022-08-03T01:56:16;100118.97;;;14.26;57.65
63399;BME280;49533;-34.520;150.798;2022-08-03T01:58:45;100107.81;;;14.31;57.63
63399;BME280;49533;-34.520;150.798;2022-08-03T02:01:16;100093.03;;;14.32;57.75
63399;BME280;49533;-34.520;150.798;2022-08-03T02:03:44;100098.25;;;14.38;57.49
63399;BME280;49533;-34.520;150.798;2022-08-03T02:06:13;100086.31;;;14.42;57.93
63399;BME280;49533;-34.520;150.798;2022-08-03T02:08:43;100081.38;;;14.48;57.99
63399;BME280;49533;-34.520;150.798;2022-08-03T02:11:12;100080.69;;;14.51;57.93
63399;BME280;49533;-34.520;150.798;2022-08-03T02:13:39;100066.38;;;14.54;58.04
63399;BME280;49533;-34.520;150.798;2022-08-03T02:16:08;100075.13;;;14.60;58.09
63399;BME280;49533;-34.520;150.798;2022-08-03T02:18:37;100049.84;;;14.63;57.97
63399;BME280;49533;-34.520;150.798;2022-08-03T02:21:07;100047.19;;;14.66;58.12
63399;BME280;49533;-34.520;150.798;2022-08-03T02:23:36;100048.13;;;14.70;58.14
63399;BME280;49533;-34.520;150.798;2022-08-03T02:26:06;100045.94;;;14.76;58.22
63399;BME280;49533;-34.520;150.798;2022-08-03T02:28:38;100042.94;;;14.81;58.15
63399;BME280;49533;-34.520;150.798;2022-08-03T02:31:21;100033.25;;;14.84;58.38
63399;BME280;49533;-34.520;150.798;2022-08-03T02:33:56;100038.47;;;14.89;58.25
63399;BME280;49533;-34.520;150.798;2022-08-03T02:36:27;100035.50;;;14.94;58.28
63399;BME280;49533;-34.520;150.798;2022-08-03T02:38:57;100025.34;;;14.94;58.07
63399;BME280;49533;-34.520;150.798;2022-08-03T02:41:45;100026.25;;;14.98;58.24
63399;BME280;49533;-34.520;150.798;2022-08-03T02:44:14;100023.59;;;15.02;58.25
63399;BME280;49533;-34.520;150.798;2022-08-03T02:46:45;100015.84;;;15.04;58.06
63399;BME280;49533;-34.520;150.798;2022-08-03T02:49:15;100003.75;;;15.05;58.32
63399;BME280;49533;-34.520;150.798;2022-08-03T02:51:44;99995.28;;;15.10;58.04
63399;BME280;49533;-34.520;150.798;2022-08-03T02:54:15;99986.38;;;15.13;58.14
63399;BME280;49533;-34.520;150.798;2022-08-03T02:56:45;99988.84;;;15.18;58.33
63399;BME280;49533;-34.520;150.798;2022-08-03T02:59:13;99976.78;;;15.19;57.98
63399;BME280;49533;-34.520;150.798;2022-08-03T03:01:41;99972.63;;;15.26;58.36
63399;BME280;49533;-34.520;150.798;2022-08-03T03:04:10;99967.59;;;15.28;58.11
63399;BME280;49533;-34.520;150.798;2022-08-03T03:06:38;99968.03;;;15.30;58.20
63399;BME280;49533;-34.520;150.798;2022-08-03T03:09:07;99961.94;;;15.36;58.26
63399;BME280;49533;-34.520;150.798;2022-08-03T03:11:37;99955.34;;;15.37;58.16
63399;BME280;49533;-34.520;150.798;2022-08-03T03:14:05;99961.34;;;15.43;58.41
63399;BME280;49533;-34.520;150.798;2022-08-03T03:16:34;99957.09;;;15.46;58.57
63399;BME280;49533;-34.520;150.798;2022-08-03T03:19:02;99941.47;;;15.46;58.40
63399;BME280;49533;-34.520;150.798;2022-08-03T03:21:30;99953.31;;;15.50;58.43
63399;BME280;49533;-34.520;150.798;2022-08-03T03:23:58;99943.59;;;15.53;58.57
63399;BME280;49533;-34.520;150.798;2022-08-03T03:26:26;99924.50;;;15.56;58.53
63399;BME280;49533;-34.520;150.798;2022-08-03T03:28:53;99931.19;;;15.59;58.49
63399;BME280;49533;-34.520;150.798;2022-08-03T03:31:21;99925.81;;;15.62;58.64
63399;BME280;49533;-34.520;150.798;2022-08-03T03:33:48;99934.47;;;15.64;58.46
63399;BME280;49533;-34.520;150.798;2022-08-03T03:36:15;99925.56;;;15.68;58.66
63399;BME280;49533;-34.520;150.798;2022-08-03T03:38:43;99922.47;;;15.69;58.49
63399;BME280;49533;-34.520;150.798;2022-08-03T03:41:10;99931.91;;;15.72;58.57
63399;BME280;49533;-34.520;150.798;2022-08-03T03:43:38;99916.38;;;15.76;58.52
63399;BME280;49533;-34.520;150.798;2022-08-03T03:46:05;99907.72;;;15.74;58.62
63399;BME280;49533;-34.520;150.798;2022-08-03T03:48:32;99903.84;;;15.75;58.61
63399;BME280;49533;-34.520;150.798;2022-08-03T03:51:00;99894.53;;;15.79;58.74
63399;BME280;49533;-34.520;150.798;2022-08-03T03:53:28;99914.94;;;15.82;58.66
63399;BME280;49533;-34.520;150.798;2022-08-03T03:55:55;99903.19;;;15.81;58.93
63399;BME280;49533;-34.520;150.798;2022-08-03T03:58:22;99901.78;;;15.88;58.84
63399;BME280;49533;-34.520;150.798;2022-08-03T04:00:49;99901.84;;;15.91;58.85
63399;BME280;49533;-34.520;150.798;2022-08-03T04:03:16;99904.25;;;15.93;58.89
63399;BME280;49533;-34.520;150.798;2022-08-03T04:05:43;99900.34;;;15.94;58.90
63399;BME280;49533;-34.520;150.798;2022-08-03T04:08:28;99904.31;;;15.96;58.79
63399;BME280;49533;-34.520;150.798;2022-08-03T04:13:49;99909.97;;;16.42;58.76
63399;BME280;49533;-34.520;150.798;2022-08-03T04:16:17;99924.81;;;16.61;58.42
63399;BME280;49533;-34.520;150.798;2022-08-03T04:18:51;99914.56;;;16.58;58.76
63399;BME280;49533;-34.520;150.798;2022-08-03T04:21:20;99917.03;;;16.63;58.99
63399;BME280;49533;-34.520;150.798;2022-08-03T04:23:52;99914.13;;;16.56;58.96
63399;BME280;49533;-34.520;150.798;2022-08-03T04:26:21;99914.72;;;16.65;58.93
63399;BME280;49533;-34.520;150.798;2022-08-03T04:28:51;99912.69;;;16.62;58.99
63399;BME280;49533;-34.520;150.798;2022-08-03T04:31:21;99911.03;;;16.57;59.04
63399;BME280;49533;-34.520;150.798;2022-08-03T04:33:51;99910.94;;;16.53;59.07
63399;BME280;49533;-34.520;150.798;2022-08-03T04:36:25;99915.66;;;16.53;59.16
63399;BME280;49533;-34.520;150.798;2022-08-03T04:39:06;99907.44;;;16.53;59.25
63399;BME280;49533;-34.520;150.798;2022-08-03T04:41:34;99909.03;;;16.54;58.99
63399;BME280;49533;-34.520;150.798;2022-08-03T04:44:03;99898.84;;;16.55;59.02
63399;BME280;49533;-34.520;150.798;2022-08-03T04:46:34;99891.06;;;16.57;59.13
63399;BME280;49533;-34.520;150.798;2022-08-03T04:49:03;99895.38;;;16.58;59.11
63399;BME280;49533;-34.520;150.798;2022-08-03T04:51:32;99889.53;;;16.59;58.92
63399;BME280;49533;-34.520;150.798;2022-08-03T04:54:04;99878.19;;;16.61;58.98
63399;BME280;49533;-34.520;150.798;2022-08-03T04:56:33;99875.88;;;16.63;58.88
63399;BME280;49533;-34.520;150.798;2022-08-03T04:59:00;99880.19;;;16.64;59.02
63399;BME280;49533;-34.520;150.798;2022-08-03T05:01:28;99882.25;;;16.67;58.65
63399;BME280;49533;-34.520;150.798;2022-08-03T05:03:55;99879.13;;;16.68;59.12
63399;BME280;49533;-34.520;150.798;2022-08-03T05:06:22;99877.59;;;16.71;58.83
63399;BME280;49533;-34.520;150.798;2022-08-03T05:08:49;99870.97;;;16.72;58.88
63399;BME280;49533;-34.520;150.798;2022-08-03T05:11:16;99870.59;;;16.73;59.02
63399;BME280;49533;-34.520;150.798;2022-08-03T05:13:44;99862.00;;;16.75;58.64
63399;BME280;49533;-34.520;150.798;2022-08-03T05:16:11;99867.94;;;16.77;58.77
63399;BME280;49533;-34.520;150.798;2022-08-03T05:18:42;99859.00;;;16.80;58.69
63399;BME280;49533;-34.520;150.798;2022-08-03T05:21:10;99869.59;;;16.82;58.88
63399;BME280;49533;-34.520;150.798;2022-08-03T05:23:39;99871.97;;;16.83;58.81
63399;BME280;49533;-34.520;150.798;2022-08-03T05:26:06;99857.53;;;16.86;59.01
63399;BME280;49533;-34.520;150.798;2022-08-03T05:28:33;99861.44;;;16.85;59.01
63399;BME280;49533;-34.520;150.798;2022-08-03T05:31:01;99859.91;;;16.88;59.04
63399;BME280;49533;-34.520;150.798;2022-08-03T05:33:28;99862.28;;;16.89;58.80
63399;BME280;49533;-34.520;150.798;2022-08-03T05:35:55;99854.03;;;16.89;58.83
63399;BME280;49533;-34.520;150.798;2022-08-03T05:38:22;99854.13;;;16.93;59.15
63399;BME280;49533;-34.520;150.798;2022-08-03T05:40:49;99847.47;;;16.94;59.06
63399;BME280;49533;-34.520;150.798;2022-08-03T05:43:16;99851.53;;;17.04;58.98
63399;BME280;49533;-34.520;150.798;2022-08-03T05:45:43;99846.84;;;17.04;58.93
63399;BME280;49533;-34.520;150.798;2022-08-03T05:48:10;99847.00;;;17.15;59.21
63399;BME280;49533;-34.520;150.798;2022-08-03T05:50:37;99849.94;;;17.52;58.77
63399;BME280;49533;-34.520;150.798;2022-08-03T05:53:04;99862.06;;;17.78;58.20
63399;BME280;49533;-34.520;150.798;2022-08-03T05:55:31;99853.63;;;17.90;57.76
63399;BME280;49533;-34.520;150.798;2022-08-03T05:57:58;99845.06;;;17.95;57.49
63399;BME280;49533;-34.520;150.798;2022-08-03T06:00:28;99843.22;;;18.07;57.27
63399;BME280;49533;-34.520;150.798;2022-08-03T06:02:55;99846.50;;;18.16;56.97
63399;BME280;49533;-34.520;150.798;2022-08-03T06:05:22;99854.03;;;18.22;56.92
63399;BME280;49533;-34.520;150.798;2022-08-03T06:07:52;99852.13;;;18.27;56.79
63399;BME280;49533;-34.520;150.798;2022-08-03T06:10:20;99856.94;;;18.37;56.52
63399;BME280;49533;-34.520;150.798;2022-08-03T06:12:47;99858.94;;;18.40;56.55
63399;BME280;49533;-34.520;150.798;2022-08-03T06:15:15;99858.59;;;18.45;56.47
63399;BME280;49533;-34.520;150.798;2022-08-03T06:17:45;99855.91;;;18.49;56.30
63399;BME280;49533;-34.520;150.798;2022-08-03T06:20:12;99864.97;;;18.53;56.37
63399;BME280;49533;-34.520;150.798;2022-08-03T06:22:39;99859.53;;;18.56;56.10
63399;BME280;49533;-34.520;150.798;2022-08-03T06:25:07;99849.75;;;18.62;56.10
63399;BME280;49533;-34.520;150.798;2022-08-03T06:27:34;99844.31;;;18.69;56.22
63399;BME280;49533;-34.520;150.798;2022-08-03T06:30:06;99852.22;;;18.75;56.08
63399;BME280;49533;-34.520;150.798;2022-08-03T06:32:34;99845.94;;;18.74;56.48
63399;BME280;49533;-34.520;150.798;2022-08-03T06:35:01;99844.75;;;18.72;56.93
63399;BME280;49533;-34.520;150.798;2022-08-03T06:37:28;99851.78;;;18.69;56.98
63399;BME280;49533;-34.520;150.798;2022-08-03T06:39:55;99850.16;;;18.64;57.74
63399;BME280;49533;-34.520;150.798;2022-08-03T06:42:22;99853.00;;;18.72;57.52
63399;BME280;49533;-34.520;150.798;2022-08-03T06:44:49;99851.31;;;18.63;57.93
63399;BME280;49533;-34.520;150.798;2022-08-03T06:47:16;99867.81;;;18.63;58.37
63399;BME280;49533;-34.520;150.798;2022-08-03T06:49:43;99860.44;;;18.71;58.43
63399;BME280;49533;-34.520;150.798;2022-08-03T06:52:10;99856.63;;;18.79;58.28
63399;BME280;49533;-34.520;150.798;2022-08-03T06:54:37;99856.25;;;18.81;58.09
63399;BME280;49533;-34.520;150.798;2022-08-03T06:57:05;99864.06;;;18.79;58.07
63399;BME280;49533;-34.520;150.798;2022-08-03T06:59:33;99865.69;;;18.80;58.05
63399;BME280;49533;-34.520;150.798;2022-08-03T07:02:00;99862.53;;;18.81;58.00
63399;BME280;49533;-34.520;150.798;2022-08-03T07:04:27;99872.38;;;18.82;57.96
63399;BME280;49533;-34.520;150.798;2022-08-03T07:06:54;99883.75;;;18.81;57.79
63399;BME280;49533;-34.520;150.798;2022-08-03T07:09:21;99874.34;;;18.82;57.78
63399;BME280;49533;-34.520;150.798;2022-08-03T07:11:48;99875.16;;;18.86;58.00
63399;BME280;49533;-34.520;150.798;2022-08-03T07:14:15;99882.25;;;18.87;57.86
63399;BME280;49533;-34.520;150.798;2022-08-03T07:16:42;99888.56;;;18.87;57.81
63399;BME280;49533;-34.520;150.798;2022-08-03T07:19:09;99887.78;;;18.87;57.80
63399;BME280;49533;-34.520;150.798;2022-08-03T07:21:37;99895.19;;;18.83;57.82
63399;BME280;49533;-34.520;150.798;2022-08-03T07:24:05;99893.22;;;18.83;57.75
63399;BME280;49533;-34.520;150.798;2022-08-03T07:26:32;99913.66;;;18.82;57.96
63399;BME280;49533;-34.520;150.798;2022-08-03T07:28:59;99923.91;;;18.82;57.86
63399;BME280;49533;-34.520;150.798;2022-08-03T07:31:26;99917.56;;;18.78;57.95
63399;BME280;49533;-34.520;150.798;2022-08-03T07:33:53;99923.47;;;18.80;57.93
63399;BME280;49533;-34.520;150.798;2022-08-03T07:36:21;99927.78;;;18.81;57.84
63399;BME280;49533;-34.520;150.798;2022-08-03T07:38:50;99929.41;;;18.82;57.76
63399;BME280;49533;-34.520;150.798;2022-08-03T07:41:16;99933.31;;;18.81;57.75
63399;BME280;49533;-34.520;150.798;2022-08-03T07:43:44;99931.75;;;18.83;57.69
63399;BME280;49533;-34.520;150.798;2022-08-03T07:46:11;99928.63;;;18.85;57.55
63399;BME280;49533;-34.520;150.798;2022-08-03T07:48:38;99929.41;;;18.85;57.46
63399;BME280;49533;-34.520;150.798;2022-08-03T07:51:05;99938.47;;;18.86;57.59
63399;BME280;49533;-34.520;150.798;2022-08-03T07:53:32;99938.47;;;18.86;57.52
63399;BME280;49533;-34.520;150.798;2022-08-03T07:55:59;99939.66;;;18.85;57.35
63399;BME280;49533;-34.520;150.798;2022-08-03T07:58:26;99945.94;;;18.85;57.35
63399;BME280;49533;-34.520;150.798;2022-08-03T08:00:53;99951.03;;;18.83;57.51
63399;BME280;49533;-34.520;150.798;2022-08-03T08:03:20;99957.72;;;18.86;57.39
63399;BME280;49533;-34.520;150.798;2022-08-03T08:05:47;99961.31;;;18.90;57.17
63399;BME280;49533;-34.520;150.798;2022-08-03T08:08:14;99953.06;;;18.90;57.24
63399;BME280;49533;-34.520;150.798;2022-08-03T08:10:41;99967.97;;;18.85;57.35
63399;BME280;49533;-34.520;150.798;2022-08-03T08:13:09;99965.56;;;18.84;57.33
63399;BME280;49533;-34.520;150.798;2022-08-03T08:15:36;99976.56;;;18.84;57.37
63399;BME280;49533;-34.520;150.798;2022-08-03T08:18:03;99980.50;;;18.83;57.39
63399;BME280;49533;-34.520;150.798;2022-08-03T08:20:32;99982.91;;;18.84;57.30
63399;BME280;49533;-34.520;150.798;2022-08-03T08:23:02;99982.84;;;18.81;57.50
63399;BME280;49533;-34.520;150.798;2022-08-03T08:25:30;99989.88;;;18.78;57.54
63399;BME280;49533;-34.520;150.798;2022-08-03T08:27:58;99999.00;;;18.82;57.38
63399;BME280;49533;-34.520;150.798;2022-08-03T08:30:31;99997.78;;;18.80;57.50
63399;BME280;49533;-34.520;150.798;2022-08-03T08:32:58;99993.06;;;18.80;57.35
63399;BME280;49533;-34.520;150.798;2022-08-03T08:35:25;99999.34;;;18.81;57.40
63399;BME280;49533;-34.520;150.798;2022-08-03T08:37:52;100007.19;;;18.79;57.44
63399;BME280;49533;-34.520;150.798;2022-08-03T08:40:21;100012.69;;;18.79;57.30
63399;BME280;49533;-34.520;150.798;2022-08-03T08:42:48;100011.47;;;18.76;57.28
63399;BME280;49533;-34.520;150.798;2022-08-03T08:45:16;100015.41;;;18.75;57.31
63399;BME280;49533;-34.520;150.798;2022-08-03T08:47:46;100012.66;;;18.75;57.28
63399;BME280;49533;-34.520;150.798;2022-08-03T08:50:18;100018.94;;;18.76;57.21
63399;BME280;49533;-34.520;150.798;2022-08-03T08:52:47;100015.41;;;18.75;57.14
63399;BME280;49533;-34.520;150.798;2022-08-03T08:55:19;100021.25;;;18.74;57.18
63399;BME280;49533;-34.520;150.798;2022-08-03T08:58:05;100023.22;;;18.73;57.12
63399;BME280;49533;-34.520;150.798;2022-08-03T09:00:34;100027.94;;;18.73;57.12
63399;BME280;49533;-34.520;150.798;2022-08-03T09:03:01;100020.84;;;18.72;57.31
63399;BME280;49533;-34.520;150.798;2022-08-03T09:05:28;100027.50;;;18.71;56.98
63399;BME280;49533;-34.520;150.798;2022-08-03T09:07:58;100025.19;;;18.73;56.89
63399;BME280;49533;-34.520;150.798;2022-08-03T09:10:25;100019.63;;;18.69;57.12
63399;BME280;49533;-34.520;150.798;2022-08-03T09:12:52;100019.22;;;18.67;56.96
63399;BME280;49533;-34.520;150.798;2022-08-03T09:15:23;100023.50;;;18.64;56.85
63399;BME280;49533;-34.520;150.798;2022-08-03T09:17:52;100029.81;;;18.65;56.88
63399;BME280;49533;-34.520;150.798;2022-08-03T09:20:21;100031.75;;;18.64;56.85
63399;BME280;49533;-34.520;150.798;2022-08-03T09:22:57;100032.13;;;18.63;56.76
63399;BME280;49533;-34.520;150.798;2022-08-03T09:25:34;100027.00;;;18.61;56.78
63399;BME280;49533;-34.520;150.798;2022-08-03T09:28:11;100022.66;;;18.60;56.64
63399;BME280;49533;-34.520;150.798;2022-08-03T09:30:41;100029.34;;;18.59;56.76
63399;BME280;49533;-34.520;150.798;2022-08-03T09:33:10;100024.97;;;18.58;56.80
63399;BME280;49533;-34.520;150.798;2022-08-03T09:35:46;100031.66;;;18.57;56.64
63399;BME280;49533;-34.520;150.798;2022-08-03T09:38:16;100025.75;;;18.55;56.72
63399;BME280;49533;-34.520;150.798;2022-08-03T09:40:45;100025.75;;;18.55;56.74
63399;BME280;49533;-34.520;150.798;2022-08-03T09:43:12;100013.53;;;18.53;56.65
63399;BME280;49533;-34.520;150.798;2022-08-03T09:45:39;100014.69;;;18.52;56.63
63399;BME280;49533;-34.520;150.798;2022-08-03T09:48:24;100008.34;;;18.47;56.70
63399;BME280;49533;-34.520;150.798;2022-08-03T09:51:01;100010.72;;;18.49;56.73
63399;BME280;49533;-34.520;150.798;2022-08-03T09:53:29;100005.97;;;18.46;56.67
63399;BME280;49533;-34.520;150.798;2022-08-03T09:55:58;100009.88;;;18.45;56.72
63399;BME280;49533;-34.520;150.798;2022-08-03T09:58:27;100001.63;;;18.45;56.51
63399;BME280;49533;-34.520;150.798;2022-08-03T10:01:03;100011.06;;;18.44;56.51
63399;BME280;49533;-34.520;150.798;2022-08-03T10:03:32;100009.47;;;18.43;56.47
63399;BME280;49533;-34.520;150.798;2022-08-03T10:06:19;100006.72;;;18.43;56.56
63399;BME280;49533;-34.520;150.798;2022-08-03T10:09:06;100010.63;;;18.42;56.45
63399;BME280;49533;-34.520;150.798;2022-08-03T10:11:35;100003.13;;;18.39;56.64
63399;BME280;49533;-34.520;150.798;2022-08-03T10:14:04;100013.28;;;18.35;56.45
63399;BME280;49533;-34.520;150.798;2022-08-03T10:16:37;100027.03;;;18.35;56.54
63399;BME280;49533;-34.520;150.798;2022-08-03T10:19:06;100010.09;;;18.33;56.61
63399;BME280;49533;-34.520;150.798;2022-08-03T10:21:39;100016.00;;;18.31;56.28
63399;BME280;49533;-34.520;150.798;2022-08-03T10:24:08;100015.22;;;18.31;56.55
63399;BME280;49533;-34.520;150.798;2022-08-03T10:26:39;100023.03;;;18.29;56.67
63399;BME280;49533;-34.520;150.798;2022-08-03T10:29:11;100032.44;;;18.28;56.64
63399;BME280;49533;-34.520;150.798;2022-08-03T10:31:44;100023.78;;;18.25;56.60
63399;BME280;49533;-34.520;150.798;2022-08-03T10:34:20;100032.38;;;18.24;56.92
63399;BME280;49533;-34.520;150.798;2022-08-03T10:36:49;100031.59;;;18.23;56.71
63399;BME280;49533;-34.520;150.798;2022-08-03T10:39:21;100029.22;;;18.22;56.57
63399;BME280;49533;-34.520;150.798;2022-08-03T10:41:50;100032.34;;;18.20;56.72
63399;BME280;49533;-34.520;150.798;2022-08-03T10:44:19;100039.00;;;18.19;56.85
63399;BME280;49533;-34.520;150.798;2022-08-03T10:46:47;100038.56;;;18.17;56.72
63399;BME280;49533;-34.520;150.798;2022-08-03T10:49:17;100045.97;;;18.13;56.85
63399;BME280;49533;-34.520;150.798;2022-08-03T10:51:46;100038.88;;;18.12;56.92
63399;BME280;49533;-34.520;150.798;2022-08-03T11:00:08;100047.09;;;18.09;56.97
63399;BME280;49533;-34.520;150.798;2022-08-03T11:03:11;100041.94;;;18.07;57.04
63399;BME280;49533;-34.520;150.798;2022-08-03T11:05:47;100039.59;;;18.06;57.18
63399;BME280;49533;-34.520;150.798;2022-08-03T11:08:21;100037.56;;;18.02;57.07
63399;BME280;49533;-34.520;150.798;2022-08-03T11:10:50;100046.97;;;18.01;57.09
63399;BME280;49533;-34.520;150.798;2022-08-03T11:13:19;100056.00;;;18.02;57.25
63399;BME280;49533;-34.520;150.798;2022-08-03T11:15:49;100052.03;;;17.99;57.05
63399;BME280;49533;-34.520;150.798;2022-08-03T11:18:16;100046.13;;;17.97;57.32
63399;BME280;49533;-34.520;150.798;2022-08-03T11:20:48;100048.44;;;17.95;57.42
63399;BME280;49533;-34.520;150.798;2022-08-03T11:23:59;100059.81;;;17.94;57.30
63399;BME280;49533;-34.520;150.798;2022-08-03T11:26:15;100060.97;;;17.93;57.39
63399;BME280;49533;-34.520;150.798;2022-08-03T11:28:44;100048.75;;;17.90;57.61
63399;BME280;49533;-34.520;150.798;2022-08-03T11:34:09;100053.03;;;17.88;57.67
63399;BME280;49533;-34.520;150.798;2022-08-03T11:39:45;100056.88;;;17.83;57.75
63399;BME280;49533;-34.520;150.798;2022-08-03T11:44:59;100060.38;;;17.80;57.82
63399;BME280;49533;-34.520;150.798;2022-08-03T11:47:26;100057.63;;;17.80;57.74
63399;BME280;49533;-34.520;150.798;2022-08-03T11:49:58;100053.63;;;17.77;57.63
63399;BME280;49533;-34.520;150.798;2022-08-03T11:52:32;100051.22;;;17.76;58.05
63399;BME280;49533;-34.520;150.798;2022-08-03T11:55:00;100057.13;;;17.74;57.85
63399;BME280;49533;-34.520;150.798;2022-08-03T11:57:32;100055.50;;;17.73;57.87
63399;BME280;49533;-34.520;150.798;2022-08-03T12:00:00;100054.28;;;17.71;58.13
63399;BME280;49533;-34.520;150.798;2022-08-03T12:02:27;100055.38;;;17.66;58.19
63399;BME280;49533;-34.520;150.798;2022-08-03T12:04:57;100053.44;;;17.67;58.07
63399;BME280;49533;-34.520;150.798;2022-08-03T12:07:29;100070.34;;;17.69;57.91
63399;BME280;49533;-34.520;150.798;2022-08-03T12:10:13;100067.53;;;17.65;57.87
63399;BME280;49533;-34.520;150.798;2022-08-03T12:12:41;100063.22;;;17.64;58.15
63399;BME280;49533;-34.520;150.798;2022-08-03T12:15:11;100067.91;;;17.64;58.13
63399;BME280;49533;-34.520;150.798;2022-08-03T12:17:39;100058.44;;;17.61;58.24
63399;BME280;49533;-34.520;150.798;2022-08-03T12:20:08;100061.13;;;17.57;58.04
63399;BME280;49533;-34.520;150.798;2022-08-03T12:22:38;100066.66;;;17.61;57.84
63399;BME280;49533;-34.520;150.798;2022-08-03T12:25:07;100065.09;;;17.60;58.06
63399;BME280;49533;-34.520;150.798;2022-08-03T12:27:35;100066.97;;;17.56;58.02
63399;BME280;49533;-34.520;150.798;2022-08-03T12:30:03;100059.91;;;17.55;58.06
63399;BME280;49533;-34.520;150.798;2022-08-03T12:32:30;100053.97;;;17.53;57.98
63399;BME280;49533;-34.520;150.798;2022-08-03T12:34:58;100040.63;;;17.51;57.90
63399;BME280;49533;-34.520;150.798;2022-08-03T12:37:30;100045.31;;;17.51;58.14
63399;BME280;49533;-34.520;150.798;2022-08-03T12:39:59;100050.41;;;17.49;58.35
63399;BME280;49533;-34.520;150.798;2022-08-03T12:42:34;100048.78;;;17.48;58.16
63399;BME280;49533;-34.520;150.798;2022-08-03T12:45:21;100044.03;;;17.45;58.43
63399;BME280;49533;-34.520;150.798;2022-08-03T12:47:55;100034.63;;;17.46;58.46
63399;BME280;49533;-34.520;150.798;2022-08-03T12:50:30;100036.53;;;17.42;58.60
63399;BME280;49533;-34.520;150.798;2022-08-03T12:53:00;100045.91;;;17.41;58.72
63399;BME280;49533;-34.520;150.798;2022-08-03T12:55:28;100052.56;;;17.39;58.55
63399;BME280;49533;-34.520;150.798;2022-08-03T12:58:02;100048.25;;;17.38;58.39
63399;BME280;49533;-34.520;150.798;2022-08-03T13:00:30;100049.38;;;17.37;58.46
63399;BME280;49533;-34.520;150.798;2022-08-03T13:03:05;100046.22;;;17.35;58.62
63399;BME280;49533;-34.520;150.798;2022-08-03T13:05:45;100036.38;;;17.34;58.29
63399;BME280;49533;-34.520;150.798;2022-08-03T13:08:19;100034.81;;;17.33;58.55